Time;durP1;ratioP1;P1;durP2;ratioP2;P2;SDS_P1;SDS_P2;PMS_P1;PMS_P2;Temp;Humidity;BMP_temperature;BMP_pressure;BME280_temperature;BME280_humidity;BME280_pressure;Samples;Min_cycle;Max_cycle;Signal;HPM_P1;HPM_P2
2023/04/07 00:04:09;;;;;;;11.43;9.73;;;8.80;99.90;;;;;;10426456;28;20216;-70
2023/04/07 00:09:10;;;;;;;10.80;9.70;;;8.80;99.90;;;;;;10424865;28;20208;-71
2023/04/07 00:14:10;;;;;;;10.73;9.27;;;8.80;99.90;;;;;;10418647;28;20275;-70
2023/04/07 00:19:11;;;;;;;11.27;10.07;;;8.80;99.90;;;;;;10428847;28;20668;-71
2023/04/07 00:24:11;;;;;;;10.47;9.37;;;8.70;99.90;;;;;;10427098;28;20756;-70
2023/04/07 00:29:12;;;;;;;10.10;9.07;;;8.60;99.90;;;;;;10423660;28;20717;-71
2023/04/07 00:34:12;;;;;;;10.13;8.73;;;8.50;99.90;;;;;;10422145;28;20308;-71
2023/04/07 00:39:13;;;;;;;9.53;8.53;;;8.50;99.90;;;;;;10423734;28;20219;-70
2023/04/07 00:44:13;;;;;;;11.83;9.10;;;8.50;99.90;;;;;;10425173;28;20238;-70
2023/04/07 00:49:16;;;;;;;11.40;8.40;;;8.50;99.90;;;;;;10425968;28;20192;-71
2023/04/07 00:54:18;;;;;;;10.27;8.53;;;8.50;99.90;;;;;;10427270;28;20779;-70
2023/04/07 00:59:18;;;;;;;9.37;8.37;;;8.50;99.90;;;;;;10425738;28;20279;-70
2023/04/07 01:04:24;;;;;;;10.07;8.83;;;8.50;99.90;;;;;;10411737;28;20293;-70
2023/04/07 01:09:33;;;;;;;9.00;7.93;;;8.50;99.90;;;;;;10426401;28;20730;-70
2023/04/07 01:14:41;;;;;;;9.83;8.13;;;8.50;99.90;;;;;;10427769;28;20286;-70
2023/04/07 01:19:41;;;;;;;9.63;8.40;;;8.50;99.90;;;;;;10425680;28;20212;-72
2023/04/07 01:24:53;;;;;;;9.07;8.13;;;8.50;99.90;;;;;;10426367;28;20220;-71
2023/04/07 01:29:55;;;;;;;8.67;7.77;;;8.60;99.90;;;;;;10423773;28;20292;-70
2023/04/07 01:34:58;;;;;;;9.23;7.70;;;8.60;99.90;;;;;;10423843;28;20251;-70
2023/04/07 01:39:59;;;;;;;8.47;7.57;;;8.70;99.90;;;;;;10436672;28;20258;-71
2023/04/07 01:45:00;;;;;;;8.90;7.93;;;8.80;99.90;;;;;;10429529;28;20225;-70
2023/04/07 01:50:05;;;;;;;8.43;7.23;;;8.80;99.90;;;;;;10445634;28;20722;-70
2023/04/07 01:55:06;;;;;;;8.60;7.67;;;8.80;99.90;;;;;;10434740;28;20216;-71
2023/04/07 02:00:10;;;;;;;8.50;7.03;;;8.80;99.90;;;;;;10429888;28;20227;-71
2023/04/07 02:05:15;;;;;;;8.43;7.33;;;8.90;99.90;;;;;;10425911;28;20212;-70
2023/04/07 02:10:21;;;;;;;7.23;6.53;;;9.00;99.90;;;;;;10432781;28;20271;-71
2023/04/07 02:15:23;;;;;;;7.27;6.57;;;9.00;99.90;;;;;;10431782;28;20176;-71
2023/04/07 02:20:24;;;;;;;7.80;6.70;;;9.00;99.90;;;;;;10423331;28;20196;-70
2023/04/07 02:25:29;;;;;;;8.90;7.67;;;9.10;99.90;;;;;;10429890;28;20869;-69
2023/04/07 02:30:31;;;;;;;7.90;6.60;;;9.10;99.90;;;;;;10426433;28;20265;-70
2023/04/07 02:35:31;;;;;;;8.30;7.33;;;9.00;99.90;;;;;;10432909;28;20223;-70
2023/04/07 02:40:32;;;;;;;8.00;7.20;;;9.00;99.90;;;;;;10428714;28;20223;-70
2023/04/07 02:45:32;;;;;;;7.90;7.17;;;9.00;99.90;;;;;;10433354;28;20325;-70
2023/04/07 02:50:33;;;;;;;9.43;7.30;;;9.00;99.90;;;;;;10424622;28;20694;-70
2023/04/07 02:55:33;;;;;;;10.57;7.43;;;9.00;99.90;;;;;;10429349;28;20208;-72
2023/04/07 03:00:34;;;;;;;7.60;6.80;;;9.00;99.90;;;;;;10431319;28;20219;-70
2023/04/07 03:05:35;;;;;;;8.73;7.57;;;9.00;99.90;;;;;;10424967;28;20221;-70
2023/04/07 03:10:35;;;;;;;7.97;7.10;;;9.00;99.90;;;;;;10418315;28;20307;-70
2023/04/07 03:15:39;;;;;;;7.47;6.60;;;9.10;99.90;;;;;;10421417;28;20219;-70
2023/04/07 03:20:41;;;;;;;7.87;7.07;;;9.10;99.90;;;;;;10431911;28;20216;-72
2023/04/07 03:25:41;;;;;;;6.87;6.23;;;9.10;99.90;;;;;;10433887;28;20266;-70
2023/04/07 03:30:42;;;;;;;7.73;6.43;;;9.10;99.90;;;;;;10424272;28;20290;-70
2023/04/07 03:35:42;;;;;;;8.00;6.90;;;9.10;99.90;;;;;;10426599;28;20239;-70
2023/04/07 03:40:43;;;;;;;9.37;7.47;;;9.10;99.90;;;;;;10422029;28;20215;-70
2023/04/07 03:45:44;;;;;;;8.30;7.03;;;9.10;99.90;;;;;;10424833;28;20221;-71
2023/04/07 03:50:45;;;;;;;8.17;7.03;;;9.10;99.90;;;;;;10432161;28;20211;-71
2023/04/07 03:55:47;;;;;;;9.53;7.00;;;9.10;99.90;;;;;;10424873;28;20216;-71
2023/04/07 04:00:47;;;;;;;8.10;7.20;;;9.10;99.90;;;;;;10424538;28;20216;-70
2023/04/07 04:05:48;;;;;;;7.77;6.97;;;9.10;99.90;;;;;;10431975;28;20231;-71
2023/04/07 04:10:48;;;;;;;10.40;7.50;;;9.10;99.90;;;;;;10413158;28;20228;-70
2023/04/07 04:15:49;;;;;;;8.17;7.37;;;9.10;99.90;;;;;;10422639;28;20596;-72
2023/04/07 04:20:49;;;;;;;9.70;7.23;;;9.00;99.90;;;;;;10423529;28;20223;-71
2023/04/07 04:25:50;;;;;;;11.33;7.90;;;9.10;99.90;;;;;;10419426;28;20676;-70
2023/04/07 04:30:51;;;;;;;9.30;7.50;;;9.10;99.90;;;;;;10432704;28;20220;-71
2023/04/07 04:35:51;;;;;;;8.90;7.50;;;9.10;99.90;;;;;;10422926;28;20208;-72
2023/04/07 04:40:52;;;;;;;9.27;7.57;;;9.10;99.90;;;;;;10423182;28;20707;-69
2023/04/07 04:45:53;;;;;;;7.93;7.13;;;9.10;99.90;;;;;;10431932;28;20220;-70
2023/04/07 04:50:53;;;;;;;10.17;7.00;;;9.10;99.90;;;;;;10427203;28;20213;-70
2023/04/07 04:55:54;;;;;;;9.17;7.57;;;9.10;99.90;;;;;;10431206;28;20301;-70
2023/04/07 05:00:56;;;;;;;9.10;7.43;;;9.10;99.90;;;;;;10420892;28;20217;-70
2023/04/07 05:05:57;;;;;;;8.10;7.30;;;9.20;99.90;;;;;;10432078;28;20278;-70
2023/04/07 05:10:58;;;;;;;8.53;7.73;;;9.20;99.90;;;;;;10438723;28;20212;-71
2023/04/07 05:15:58;;;;;;;8.53;7.10;;;9.20;99.90;;;;;;10430195;28;20215;-71
2023/04/07 05:21:00;;;;;;;8.50;7.37;;;9.20;99.90;;;;;;10423816;28;20223;-70
2023/04/07 05:26:01;;;;;;;8.03;7.23;;;9.20;99.90;;;;;;10431770;28;20248;-70
2023/04/07 05:31:02;;;;;;;9.73;8.07;;;9.10;99.90;;;;;;10435507;28;20247;-70
2023/04/07 05:36:02;;;;;;;9.53;8.10;;;9.10;99.90;;;;;;10430171;28;20313;-69
2023/04/07 05:41:03;;;;;;;8.50;7.60;;;9.10;99.90;;;;;;10436201;28;20298;-71
2023/04/07 05:46:03;;;;;;;8.70;7.80;;;9.10;99.90;;;;;;10429799;28;20312;-69
2023/04/07 05:51:04;;;;;;;8.87;8.00;;;9.10;99.90;;;;;;10435388;28;20295;-71
2023/04/07 05:56:05;;;;;;;10.27;9.27;;;9.20;99.90;;;;;;10431438;28;20615;-70
2023/04/07 06:01:06;;;;;;;9.80;8.67;;;9.30;99.90;;;;;;10435129;28;20239;-72
2023/04/07 06:06:06;;;;;;;11.00;8.63;;;9.30;99.90;;;;;;10429951;28;20220;-70
2023/04/07 06:11:07;;;;;;;9.33;8.43;;;9.30;99.90;;;;;;10431253;28;20215;-71
2023/04/07 06:16:07;;;;;;;10.20;9.20;;;9.30;99.90;;;;;;10429408;28;20220;-72
2023/04/07 06:21:08;;;;;;;9.80;8.63;;;9.20;99.90;;;;;;10428998;28;20230;-70
2023/04/07 06:26:11;;;;;;;10.63;8.80;;;9.20;99.90;;;;;;10433544;28;20227;-71
2023/04/07 06:31:12;;;;;;;11.13;9.10;;;9.30;99.90;;;;;;10431423;28;20319;-70
2023/04/07 06:36:12;;;;;;;11.07;8.87;;;9.30;99.90;;;;;;10427415;28;20213;-70
2023/04/07 06:41:15;;;;;;;8.97;8.07;;;9.30;99.90;;;;;;10432356;28;20251;-71
2023/04/07 06:46:17;;;;;;;10.53;8.77;;;9.30;99.90;;;;;;10431070;28;20232;-70
2023/04/07 06:51:17;;;;;;;9.50;8.60;;;9.40;99.90;;;;;;10429870;28;20217;-70
2023/04/07 06:56:18;;;;;;;11.63;8.90;;;9.50;99.90;;;;;;10427123;28;20231;-70
2023/04/07 07:01:19;;;;;;;10.20;8.47;;;9.60;99.90;;;;;;10425791;28;20267;-70
2023/04/07 07:06:22;;;;;;;10.63;8.97;;;9.60;99.90;;;;;;10416584;28;20262;-68
2023/04/07 07:11:23;;;;;;;9.43;8.43;;;9.70;99.90;;;;;;10430869;28;20219;-70
2023/04/07 07:16:23;;;;;;;9.57;8.30;;;9.90;99.90;;;;;;10422755;28;20218;-70
2023/04/07 07:21:24;;;;;;;8.63;7.73;;;10.10;99.90;;;;;;10427655;28;20252;-69
2023/04/07 07:26:26;;;;;;;9.67;8.67;;;10.10;99.90;;;;;;10428876;28;20695;-69
2023/04/07 07:31:26;;;;;;;10.43;8.60;;;10.00;99.90;;;;;;10427772;28;20284;-70
2023/04/07 07:36:27;;;;;;;12.20;8.60;;;10.00;99.90;;;;;;10427448;28;20220;-71
2023/04/07 07:41:27;;;;;;;11.77;9.27;;;10.00;99.90;;;;;;10429455;28;20285;-71
2023/04/07 07:46:31;;;;;;;12.20;8.80;;;10.10;99.90;;;;;;10427856;28;20275;-70
2023/04/07 07:51:32;;;;;;;11.80;9.30;;;10.20;99.90;;;;;;10431103;28;20227;-70
2023/04/07 07:56:32;;;;;;;11.67;8.93;;;10.20;99.90;;;;;;10426869;28;20303;-70
2023/04/07 08:01:33;;;;;;;12.77;9.63;;;10.30;99.90;;;;;;10430769;28;20675;-70
2023/04/07 08:06:34;;;;;;;9.73;8.73;;;10.50;99.90;;;;;;10426151;28;20259;-70
2023/04/07 08:11:34;;;;;;;9.43;8.03;;;10.70;99.90;;;;;;10432295;28;20217;-70
2023/04/07 08:16:35;;;;;;;10.37;8.30;;;10.90;99.90;;;;;;10426961;28;20212;-71
2023/04/07 08:21:35;;;;;;;10.63;8.40;;;11.10;99.90;;;;;;10419818;28;20220;-71
2023/04/07 08:26:36;;;;;;;12.17;8.00;;;11.20;99.90;;;;;;10424890;28;20232;-71
2023/04/07 08:31:36;;;;;;;10.93;8.73;;;11.30;99.90;;;;;;10428000;28;20293;-71
2023/04/07 08:36:37;;;;;;;8.20;7.03;;;11.60;99.90;;;;;;10424422;28;20224;-71
2023/04/07 08:41:41;;;;;;;11.10;8.23;;;11.80;99.90;;;;;;10429455;28;20224;-70
2023/04/07 08:46:42;;;;;;;10.20;8.33;;;11.80;99.90;;;;;;10420552;28;20246;-71
2023/04/07 08:51:51;;;;;;;8.97;8.07;;;11.80;99.90;;;;;;10430190;28;20226;-71
2023/04/07 08:56:52;;;;;;;10.13;7.80;;;11.70;99.90;;;;;;10404401;28;20212;-71
2023/04/07 09:01:54;;;;;;;8.93;7.87;;;11.80;99.90;;;;;;10429910;28;20220;-72
2023/04/07 09:06:54;;;;;;;11.43;8.47;;;11.90;99.90;;;;;;10416289;28;20694;-70
2023/04/07 09:11:55;;;;;;;11.40;9.37;;;12.10;99.90;;;;;;10420874;28;20237;-71
2023/04/07 09:16:56;;;;;;;9.00;7.80;;;12.40;99.90;;;;;;10430600;28;20215;-71
2023/04/07 09:21:56;;;;;;;11.30;8.67;;;12.90;99.90;;;;;;10421137;28;20226;-71
2023/04/07 09:27:18;;;;;;;9.97;8.87;;;13.20;99.90;;;;;;10423890;28;20232;-71
2023/04/07 09:32:38;;;;;;;9.60;8.43;;;13.60;99.90;;;;;;10426187;28;20274;-72
2023/04/07 09:37:39;;;;;;;8.87;8.00;;;13.90;99.90;;;;;;10422437;28;20248;-70
2023/04/07 09:42:47;;;;;;;8.63;7.73;;;14.10;99.90;;;;;;10428182;28;20269;-70
2023/04/07 09:47:47;;;;;;;7.20;6.50;;;14.30;99.90;;;;;;10429845;28;20286;-70
2023/04/07 09:52:51;;;;;;;8.47;7.33;;;14.40;99.90;;;;;;10437344;28;20569;-71
2023/04/07 09:57:54;;;;;;;8.97;7.30;;;14.00;99.90;;;;;;10421973;28;20220;-71
2023/04/07 10:02:56;;;;;;;8.07;7.27;;;13.60;99.90;;;;;;10436035;28;20690;-70
2023/04/07 10:08:01;;;;;;;10.07;8.80;;;13.40;99.90;;;;;;10435614;28;20608;-70
2023/04/07 10:13:04;;;;;;;9.13;8.23;;;13.30;99.90;;;;;;10427793;28;20224;-71
2023/04/07 10:18:07;;;;;;;10.27;9.17;;;13.30;99.90;;;;;;10432149;28;20227;-73
2023/04/07 10:23:18;;;;;;;9.50;8.10;;;13.20;99.90;;;;;;10425509;28;20217;-71
2023/04/07 10:28:22;;;;;;;7.43;6.70;;;13.10;99.90;;;;;;10427145;28;20605;-71
2023/04/07 10:33:49;;;;;;;8.20;6.80;;;12.90;99.90;;;;;;10433028;28;20219;-70
2023/04/07 10:39:07;;;;;;;9.93;7.13;;;13.00;99.90;;;;;;10427753;28;20209;-70
2023/04/07 10:44:30;;;;;;;9.70;7.30;;;13.10;99.90;;;;;;10424543;28;20323;-72
2023/04/07 10:49:32;;;;;;;7.33;6.63;;;13.00;99.90;;;;;;10435475;28;20235;-71
2023/04/07 10:54:33;;;;;;;8.93;8.07;;;12.50;99.90;;;;;;10415212;28;20216;-71
2023/04/07 10:59:33;;;;;;;9.00;7.97;;;12.40;99.90;;;;;;10428890;28;20224;-71
2023/04/07 11:04:38;;;;;;;7.50;6.40;;;12.60;99.90;;;;;;10429357;28;20229;-71
2023/04/07 11:09:42;;;;;;;8.37;7.50;;;13.00;99.90;;;;;;10428187;28;20270;-71
2023/04/07 11:14:43;;;;;;;8.93;7.70;;;13.30;99.90;;;;;;10409072;28;20207;-71
2023/04/07 11:19:57;;;;;;;6.87;6.17;;;13.60;99.90;;;;;;10431541;28;20491;-71
2023/04/07 11:24:58;;;;;;;7.10;6.40;;;13.90;99.90;;;;;;10402016;28;20767;-70
2023/04/07 11:29:59;;;;;;;6.87;5.90;;;14.10;99.90;;;;;;10432892;28;20263;-71
2023/04/07 11:35:00;;;;;;;6.40;5.80;;;14.20;99.90;;;;;;10425147;28;20228;-71
2023/04/07 11:40:00;;;;;;;6.27;5.70;;;14.20;99.90;;;;;;10430775;28;20250;-70
2023/04/07 11:45:02;;;;;;;6.97;5.30;;;14.10;99.90;;;;;;10424923;28;20290;-71
2023/04/07 11:50:02;;;;;;;5.87;5.37;;;14.00;99.90;;;;;;10426552;28;20235;-71
2023/04/07 11:55:03;;;;;;;6.60;6.00;;;13.80;99.90;;;;;;10431806;28;20696;-70
2023/04/07 12:00:09;;;;;;;6.90;6.30;;;13.80;99.90;;;;;;10426200;28;20234;-71
2023/04/07 12:05:10;;;;;;;6.10;5.50;;;14.10;99.90;;;;;;10419330;28;20241;-72
2023/04/07 12:10:21;;;;;;;5.53;5.03;;;14.40;99.90;;;;;;10427679;28;20658;-71
2023/04/07 12:15:21;;;;;;;5.83;5.33;;;14.20;99.90;;;;;;10422078;28;20205;-71
2023/04/07 12:20:22;;;;;;;9.17;8.27;;;13.70;99.90;;;;;;10421232;28;20194;-71
2023/04/07 12:25:23;;;;;;;9.27;8.37;;;13.00;99.90;;;;;;10420336;28;20204;-71
2023/04/07 12:30:23;;;;;;;9.47;8.47;;;12.60;99.90;;;;;;10426701;28;20500;-71
2023/04/07 12:35:24;;;;;;;10.27;8.77;;;12.50;99.90;;;;;;10434391;28;20283;-72
2023/04/07 12:40:25;;;;;;;10.87;9.10;;;12.50;99.90;;;;;;10427383;28;20226;-71
2023/04/07 12:45:26;;;;;;;8.83;8.03;;;12.60;99.90;;;;;;10425326;28;20216;-73
2023/04/07 12:50:28;;;;;;;9.00;8.10;;;13.10;99.90;;;;;;10428621;28;20255;-71
2023/04/07 12:55:29;;;;;;;9.50;7.90;;;13.80;99.90;;;;;;10416042;28;20607;-71
2023/04/07 13:00:30;;;;;;;7.47;6.77;;;14.40;99.90;;;;;;10416656;28;20587;-73
2023/04/07 13:05:30;;;;;;;7.60;6.70;;;14.80;99.90;;;;;;10424685;28;20228;-71
2023/04/07 13:10:31;;;;;;;5.00;4.47;;;14.90;99.90;;;;;;10424361;28;20216;-71
2023/04/07 13:15:32;;;;;;;7.13;5.07;;;14.90;99.90;;;;;;10419080;28;20218;-72
2023/04/07 13:20:32;;;;;;;4.50;4.10;;;14.80;99.90;;;;;;10427900;28;20223;-71
2023/04/07 13:25:33;;;;;;;5.63;4.50;;;14.60;99.90;;;;;;10433263;28;20227;-72
2023/04/07 13:30:33;;;;;;;4.80;4.40;;;14.50;99.90;;;;;;10432741;28;20215;-70
2023/04/07 13:35:34;;;;;;;4.10;3.80;;;14.60;99.90;;;;;;10436115;28;20224;-71
2023/04/07 13:40:38;;;;;;;5.63;4.80;;;14.20;99.90;;;;;;10432106;28;20221;-71
2023/04/07 13:45:38;;;;;;;5.63;5.13;;;13.60;99.90;;;;;;10436453;28;20231;-70
2023/04/07 13:50:39;;;;;;;6.50;5.90;;;13.30;99.90;;;;;;10431350;28;20290;-70
2023/04/07 13:55:40;;;;;;;7.97;7.17;;;13.30;99.90;;;;;;10436252;28;20318;-71
2023/04/07 14:00:41;;;;;;;8.83;7.93;;;13.60;99.90;;;;;;10430877;28;20291;-71
2023/04/07 14:05:41;;;;;;;6.40;5.80;;;14.00;99.90;;;;;;10434780;28;20231;-71
2023/04/07 14:10:42;;;;;;;6.53;5.93;;;14.40;99.90;;;;;;10429719;28;20280;-71
2023/04/07 14:15:42;;;;;;;4.80;4.40;;;14.70;99.90;;;;;;10422200;28;20219;-72
2023/04/07 14:20:43;;;;;;;4.00;3.60;;;14.90;99.90;;;;;;10433184;28;20215;-71
2023/04/07 14:25:44;;;;;;;4.37;4.07;;;14.80;99.90;;;;;;10426600;28;20258;-72
2023/04/07 14:30:46;;;;;;;4.70;4.30;;;14.50;99.90;;;;;;10433669;28;20217;-72
2023/04/07 14:35:47;;;;;;;4.33;3.93;;;14.20;99.90;;;;;;10427121;28;20230;-72
2023/04/07 14:40:48;;;;;;;3.60;3.30;;;14.00;99.90;;;;;;10434516;28;20287;-71
2023/04/07 14:45:49;;;;;;;6.60;5.60;;;13.70;99.90;;;;;;10427852;28;20251;-71
2023/04/07 14:50:49;;;;;;;4.40;4.00;;;13.50;99.90;;;;;;10427812;28;20266;-70
2023/04/07 14:55:50;;;;;;;4.97;4.37;;;13.30;99.90;;;;;;10428788;28;20248;-71
2023/04/07 15:00:50;;;;;;;4.37;3.70;;;13.10;99.90;;;;;;10424007;28;20253;-71
2023/04/07 15:05:51;;;;;;;4.80;4.40;;;12.90;99.90;;;;;;10411407;28;20231;-71
2023/04/07 15:10:51;;;;;;;5.13;4.53;;;13.00;99.90;;;;;;10433916;28;20726;-72
2023/04/07 15:15:52;;;;;;;4.80;4.20;;;13.20;99.90;;;;;;10432842;28;20215;-70
2023/04/07 15:20:52;;;;;;;4.23;3.73;;;13.40;99.90;;;;;;10425196;28;20220;-71
2023/04/07 15:25:55;;;;;;;4.20;3.80;;;13.50;99.90;;;;;;10429100;28;20717;-71
2023/04/07 15:30:55;;;;;;;3.77;3.10;;;13.60;99.90;;;;;;10432310;28;20592;-71
2023/04/07 15:36:00;;;;;;;3.07;2.80;;;13.80;99.90;;;;;;10427201;28;20227;-71
2023/04/07 15:41:00;;;;;;;2.97;2.63;;;13.80;99.90;;;;;;10427608;28;20301;-71
2023/04/07 15:46:01;;;;;;;3.33;3.03;;;13.60;99.90;;;;;;10430824;28;20315;-71
2023/04/07 15:51:01;;;;;;;3.00;2.80;;;13.30;99.90;;;;;;10425490;28;20224;-71
2023/04/07 15:56:02;;;;;;;2.97;2.77;;;13.10;99.90;;;;;;10431810;28;20724;-71
2023/04/07 16:01:03;;;;;;;3.53;3.10;;;13.10;99.90;;;;;;10420920;28;20211;-72
2023/04/07 16:06:07;;;;;;;3.70;3.40;;;12.90;99.90;;;;;;10424419;28;20233;-72
2023/04/07 16:11:08;;;;;;;3.13;2.90;;;12.60;99.90;;;;;;10421402;28;20238;-71
2023/04/07 16:16:08;;;;;;;2.60;2.40;;;12.30;99.90;;;;;;10419956;28;20303;-72
2023/04/07 16:21:09;;;;;;;3.10;2.80;;;12.10;99.90;;;;;;10427360;28;20216;-72
2023/04/07 16:26:10;;;;;;;4.73;3.80;;;11.80;99.90;;;;;;10425477;28;20613;-73
2023/04/07 16:31:14;;;;;;;4.10;3.00;;;11.70;99.90;;;;;;10432106;28;20212;-70
2023/04/07 16:36:14;;;;;;;2.60;2.40;;;11.60;99.90;;;;;;10430847;28;20219;-70
2023/04/07 16:41:15;;;;;;;5.60;3.00;;;11.60;99.90;;;;;;10431834;28;20220;-71
2023/04/07 16:46:16;;;;;;;3.77;3.00;;;11.60;99.90;;;;;;10424995;28;20277;-71
2023/04/07 16:51:17;;;;;;;4.13;3.17;;;11.70;99.90;;;;;;10421350;28;20273;-71
2023/04/07 16:56:20;;;;;;;2.50;2.30;;;11.60;99.90;;;;;;10432779;28;20220;-71
2023/04/07 17:01:20;;;;;;;2.30;2.10;;;11.70;99.90;;;;;;10429544;28;20217;-71
2023/04/07 17:06:21;;;;;;;2.37;1.90;;;11.70;99.90;;;;;;10438805;28;20224;-71
2023/04/07 17:11:21;;;;;;;1.60;1.50;;;11.70;99.90;;;;;;10427734;28;20221;-72
2023/04/07 17:16:22;;;;;;;1.73;1.50;;;11.60;99.90;;;;;;10433834;28;20220;-72
2023/04/07 17:21:23;;;;;;;1.70;1.60;;;11.50;99.90;;;;;;10434756;28;20219;-71
2023/04/07 17:26:24;;;;;;;2.53;1.30;;;11.40;99.90;;;;;;10430605;28;20228;-71
2023/04/07 17:31:25;;;;;;;2.03;1.30;;;11.20;99.90;;;;;;10433734;28;20224;-71
2023/04/07 17:36:26;;;;;;;1.63;1.53;;;11.00;99.90;;;;;;10433757;28;20312;-71
2023/04/07 17:41:27;;;;;;;1.20;0.90;;;10.80;99.90;;;;;;10430053;28;20220;-71
2023/04/07 17:46:28;;;;;;;1.00;1.00;;;10.60;99.90;;;;;;10434522;28;20224;-71
2023/04/07 17:51:32;;;;;;;1.50;1.40;;;10.40;99.90;;;;;;10430379;28;20223;-71
2023/04/07 17:56:32;;;;;;;3.83;1.60;;;10.40;99.90;;;;;;10437354;28;20637;-71
2023/04/07 18:01:33;;;;;;;1.43;1.20;;;10.30;99.90;;;;;;10430702;28;20221;-72
2023/04/07 18:06:33;;;;;;;1.50;1.40;;;10.30;99.90;;;;;;10423537;28;20600;-71
2023/04/07 18:11:35;;;;;;;2.50;1.40;;;10.20;99.90;;;;;;10427230;28;20236;-71
2023/04/07 18:16:35;;;;;;;1.43;1.33;;;10.30;99.90;;;;;;10432478;28;20219;-71
2023/04/07 18:21:36;;;;;;;1.90;1.43;;;10.40;99.90;;;;;;10430276;28;20217;-73
2023/04/07 18:26:37;;;;;;;1.73;1.63;;;10.40;99.90;;;;;;10425849;28;20783;-71
2023/04/07 18:31:40;;;;;;;2.53;2.33;;;10.50;99.90;;;;;;10433326;28;20588;-71
2023/04/07 18:36:41;;;;;;;2.37;2.20;;;10.50;99.90;;;;;;10427619;28;20598;-72
2023/04/07 18:41:44;;;;;;;2.33;2.13;;;10.60;99.90;;;;;;10432142;28;20307;-71
2023/04/07 18:46:47;;;;;;;2.90;2.20;;;10.60;99.90;;;;;;10426648;28;20720;-73
2023/04/07 18:51:48;;;;;;;1.67;1.57;;;10.60;99.90;;;;;;10427348;28;20248;-71
2023/04/07 18:56:48;;;;;;;3.00;2.70;;;10.50;99.90;;;;;;10420199;28;20627;-71
2023/04/07 19:01:49;;;;;;;2.37;2.17;;;10.50;99.90;;;;;;10433911;28;20240;-72
2023/04/07 19:06:50;;;;;;;2.63;2.43;;;10.60;99.90;;;;;;10425585;28;20228;-71
2023/04/07 19:11:51;;;;;;;2.80;2.60;;;10.60;99.90;;;;;;10435137;28;20730;-72
2023/04/07 19:16:52;;;;;;;3.20;2.90;;;10.60;99.90;;;;;;10419875;28;20423;-70
2023/04/07 19:21:52;;;;;;;4.30;2.90;;;10.60;99.90;;;;;;10434066;28;20220;-71
2023/04/07 19:26:53;;;;;;;2.67;2.40;;;10.60;99.90;;;;;;10431378;28;20837;-71
2023/04/07 19:31:55;;;;;;;2.23;2.10;;;10.60;99.90;;;;;;10431961;28;20800;-71
2023/04/07 19:36:57;;;;;;;2.60;2.40;;;10.50;99.90;;;;;;10425525;28;20260;-71
2023/04/07 19:41:57;;;;;;;2.67;2.47;;;10.50;99.90;;;;;;10431066;28;20230;-72
2023/04/07 19:46:58;;;;;;;2.43;2.20;;;10.50;99.90;;;;;;10424073;28;20727;-70
2023/04/07 19:51:59;;;;;;;2.67;2.47;;;10.50;99.90;;;;;;10430854;28;20235;-71
2023/04/07 19:57:00;;;;;;;2.37;2.10;;;10.50;99.90;;;;;;10414800;28;20603;-70
2023/04/07 20:02:01;;;;;;;2.20;2.00;;;10.50;99.90;;;;;;10425280;28;20305;-70
2023/04/07 20:07:01;;;;;;;2.83;2.63;;;10.50;99.90;;;;;;10425206;28;20363;-72
2023/04/07 20:12:02;;;;;;;3.30;2.10;;;10.50;99.90;;;;;;10431536;28;20220;-70
2023/04/07 20:17:03;;;;;;;2.10;1.83;;;10.40;99.90;;;;;;10425342;28;20638;-70
2023/04/07 20:22:04;;;;;;;2.40;2.20;;;10.40;99.90;;;;;;10428761;28;20311;-71
2023/04/07 20:27:05;;;;;;;2.43;1.97;;;10.40;99.90;;;;;;10414803;28;20730;-71
2023/04/07 20:32:05;;;;;;;2.27;2.10;;;10.40;99.90;;;;;;10421722;28;20227;-71
2023/04/07 20:37:06;;;;;;;2.03;1.83;;;10.30;99.90;;;;;;10429536;28;20225;-71
2023/04/07 20:42:06;;;;;;;2.53;2.00;;;10.30;99.90;;;;;;10422722;28;20282;-70
2023/04/07 20:47:11;;;;;;;2.20;2.00;;;10.20;99.90;;;;;;10426405;28;20235;-71
2023/04/07 20:52:12;;;;;;;2.23;2.10;;;10.20;99.90;;;;;;10426015;28;20590;-70
2023/04/07 20:57:13;;;;;;;2.73;2.30;;;10.20;99.90;;;;;;10424870;28;20208;-71
2023/04/07 21:02:13;;;;;;;3.50;2.20;;;10.20;99.90;;;;;;10422149;28;20701;-70
2023/04/07 21:07:14;;;;;;;2.33;2.10;;;10.10;99.90;;;;;;10428582;28;20238;-71
2023/04/07 21:12:15;;;;;;;4.00;2.40;;;10.10;99.90;;;;;;10419609;28;20587;-72
2023/04/07 21:17:15;;;;;;;2.53;2.33;;;10.10;99.90;;;;;;10425703;28;20273;-71
2023/04/07 21:22:16;;;;;;;1.80;1.70;;;10.10;99.90;;;;;;10425939;28;20710;-71
2023/04/07 21:27:17;;;;;;;2.37;1.90;;;10.00;99.90;;;;;;10425741;28;20238;-71
2023/04/07 21:32:17;;;;;;;2.33;1.87;;;10.10;99.90;;;;;;10425405;28;20287;-70
2023/04/07 21:37:18;;;;;;;2.20;2.00;;;10.10;99.90;;;;;;10423759;28;20227;-71
2023/04/07 21:42:20;;;;;;;3.63;2.20;;;10.00;99.90;;;;;;10431314;28;20286;-71
2023/04/07 21:47:20;;;;;;;1.97;1.80;;;10.00;99.90;;;;;;10428619;28;20306;-72
2023/04/07 21:52:21;;;;;;;4.17;1.67;;;10.00;99.90;;;;;;10433501;28;20326;-71
2023/04/07 21:57:22;;;;;;;2.10;1.90;;;10.00;99.90;;;;;;10433233;28;20588;-70
2023/04/07 22:02:22;;;;;;;3.70;2.23;;;10.00;99.90;;;;;;10427640;28;20224;-71
2023/04/07 22:07:23;;;;;;;2.27;1.60;;;9.90;99.90;;;;;;10430296;28;20216;-70
2023/04/07 22:12:24;;;;;;;3.23;1.90;;;9.90;99.90;;;;;;10433296;28;20216;-70
2023/04/07 22:17:24;;;;;;;2.20;2.00;;;9.90;99.90;;;;;;10432650;28;20592;-70
2023/04/07 22:22:25;;;;;;;1.90;1.80;;;9.90;99.90;;;;;;10418638;28;20220;-71
2023/04/07 22:27:26;;;;;;;2.57;2.37;;;9.90;99.90;;;;;;10433420;28;20223;-71
2023/04/07 22:32:30;;;;;;;2.37;2.17;;;9.90;99.90;;;;;;10431533;28;20212;-70
2023/04/07 22:37:30;;;;;;;2.10;1.90;;;9.90;99.90;;;;;;10433139;28;20269;-71
2023/04/07 22:42:31;;;;;;;1.93;1.83;;;9.90;99.90;;;;;;10427174;28;20611;-71
2023/04/07 22:47:31;;;;;;;2.27;2.03;;;9.90;99.90;;;;;;10429668;28;20224;-71
2023/04/07 22:52:32;;;;;;;2.77;1.60;;;9.90;99.90;;;;;;10431870;28;20311;-70
2023/04/07 22:57:32;;;;;;;3.77;1.90;;;9.80;99.90;;;;;;10418020;28;20313;-71
2023/04/07 23:02:33;;;;;;;1.60;1.50;;;9.80;99.90;;;;;;10424214;28;20247;-70
2023/04/07 23:07:34;;;;;;;2.00;1.80;;;9.80;99.90;;;;;;10420765;28;20232;-70
2023/04/07 23:12:35;;;;;;;1.97;1.87;;;9.80;99.90;;;;;;10421839;28;20217;-70
2023/04/07 23:17:35;;;;;;;2.57;1.80;;;9.80;99.90;;;;;;10431119;28;20208;-71
2023/04/07 23:22:36;;;;;;;1.90;1.80;;;9.70;99.90;;;;;;10433288;28;20638;-71
2023/04/07 23:27:36;;;;;;;1.53;1.43;;;9.70;99.90;;;;;;10425077;28;20599;-70
2023/04/07 23:32:37;;;;;;;1.80;1.70;;;9.60;99.90;;;;;;10424860;28;20212;-71
2023/04/07 23:37:37;;;;;;;1.50;1.40;;;9.50;99.90;;;;;;10425940;28;20295;-71
2023/04/07 23:42:38;;;;;;;1.90;1.80;;;9.50;99.90;;;;;;10427994;28;20623;-71
2023/04/07 23:47:39;;;;;;;2.23;1.70;;;9.50;99.90;;;;;;10425686;28;20232;-72
2023/04/07 23:52:39;;;;;;;1.97;1.87;;;9.30;99.90;;;;;;10431697;28;20231;-70
2023/04/07 23:57:40;;;;;;;1.80;1.70;;;9.30;99.90;;;;;;10423545;28;20438;-70
